createdAt,value
2019-02-17T00:01:50.277Z,64.64
2019-02-17T00:04:39.875Z,64.54
2019-02-17T00:07:29.751Z,63.87
2019-02-17T00:10:19.011Z,64.87
2019-02-17T00:13:08.738Z,65.89
2019-02-17T00:15:58.164Z,64.26
2019-02-17T00:18:48.415Z,65.02
2019-02-17T00:21:37.735Z,64.68
2019-02-17T00:24:27.302Z,65.39
2019-02-17T00:27:40.514Z,65.87
2019-02-17T00:30:29.879Z,65.30
2019-02-17T00:33:19.165Z,65.09
2019-02-17T00:36:08.701Z,65.21
2019-02-17T00:38:58.145Z,65.29
2019-02-17T00:41:47.635Z,65.09
2019-02-17T00:44:36.855Z,65.35
2019-02-17T00:47:26.076Z,65.11
2019-02-17T00:50:15.620Z,65.42
2019-02-17T00:53:04.771Z,66.43
2019-02-17T00:55:54.435Z,67.03
2019-02-17T00:58:43.919Z,65.48
2019-02-17T01:01:33.338Z,65.81
2019-02-17T01:04:22.919Z,65.62
2019-02-17T01:07:13.718Z,64.75
2019-02-17T01:10:03.562Z,64.92
2019-02-17T01:12:52.758Z,64.98
2019-02-17T01:15:42.651Z,64.69
2019-02-17T01:18:32.236Z,64.79
2019-02-17T01:21:21.511Z,65.02
2019-02-17T01:24:11.367Z,65.12
2019-02-17T01:27:00.919Z,64.49
2019-02-17T01:29:51.057Z,64.09
2019-02-17T01:32:40.830Z,64.23
2019-02-17T01:35:30.595Z,63.67
2019-02-17T01:38:19.832Z,64.43
2019-02-17T01:41:10.152Z,63.38
2019-02-17T01:44:00.001Z,63.97
2019-02-17T01:46:49.188Z,63.56
2019-02-17T01:49:39.502Z,63.89
2019-02-17T01:52:28.730Z,63.49
2019-02-17T01:55:18.600Z,63.74
2019-02-17T01:58:08.143Z,64.32
2019-02-17T02:00:58.648Z,64.00
2019-02-17T02:03:47.877Z,63.60
2019-02-17T02:06:36.967Z,64.23
2019-02-17T02:09:26.646Z,64.53
2019-02-17T02:12:16.387Z,64.04
2019-02-17T02:15:06.553Z,64.69
2019-02-17T02:17:56.471Z,63.96
2019-02-17T02:20:46.380Z,63.63
2019-02-17T02:23:35.586Z,64.47
2019-02-17T02:26:25.212Z,64.93
2019-02-17T02:29:14.724Z,65.67
2019-02-17T02:32:04.967Z,64.30
2019-02-17T02:34:54.094Z,64.99
2019-02-17T02:37:43.598Z,64.35
2019-02-17T02:40:32.871Z,64.01
2019-02-17T02:43:22.678Z,64.48
2019-02-17T02:46:12.193Z,64.11
2019-02-17T02:49:01.871Z,64.12
2019-02-17T02:51:51.552Z,65.31
2019-02-17T02:54:41.197Z,65.03
2019-02-17T02:57:30.553Z,65.15
2019-02-17T03:00:20.080Z,66.00
2019-02-17T03:03:09.365Z,65.62
2019-02-17T03:06:12.785Z,64.74
2019-02-17T03:09:04.333Z,66.43
2019-02-17T03:11:54.162Z,65.58
2019-02-17T03:14:43.787Z,65.52
2019-02-17T03:17:32.947Z,65.56
2019-02-17T03:20:22.617Z,65.57
2019-02-17T03:23:15.572Z,65.77
2019-02-17T03:26:04.750Z,66.50
2019-02-17T03:28:54.246Z,66.49
2019-02-17T03:31:44.319Z,66.48
2019-02-17T03:34:33.932Z,65.45
2019-02-17T03:37:23.785Z,64.74
2019-02-17T03:40:12.899Z,64.63
2019-02-17T03:43:02.362Z,65.13
2019-02-17T03:45:51.917Z,65.56
2019-02-17T03:48:41.477Z,65.72
2019-02-17T03:51:33.258Z,66.56
2019-02-17T03:54:22.634Z,66.93
2019-02-17T03:57:11.986Z,68.25
2019-02-17T04:00:01.046Z,67.18
2019-02-17T04:02:50.537Z,66.33
2019-02-17T04:05:40.354Z,66.20
2019-02-17T04:08:29.864Z,65.94
2019-02-17T04:11:19.774Z,66.69
2019-02-17T04:14:24.659Z,66.09
2019-02-17T04:17:14.130Z,65.65
2019-02-17T04:20:03.246Z,66.62
2019-02-17T04:22:52.885Z,66.54
2019-02-17T04:25:42.296Z,65.89
2019-02-17T04:28:32.162Z,66.42
2019-02-17T04:31:21.765Z,66.48
2019-02-17T04:34:11.572Z,66.95
2019-02-17T04:37:01.000Z,67.99
2019-02-17T04:39:50.533Z,68.14
2019-02-17T04:42:39.863Z,68.25
2019-02-17T04:45:29.597Z,67.98
2019-02-17T04:48:19.089Z,67.79
2019-02-17T04:51:08.677Z,67.18
2019-02-17T04:53:58.047Z,66.78
2019-02-17T04:56:47.678Z,66.23
2019-02-17T04:59:37.079Z,66.38
2019-02-17T05:02:26.818Z,65.70
2019-02-17T05:05:16.730Z,66.20
2019-02-17T05:08:06.431Z,65.98
2019-02-17T05:10:56.065Z,66.20
2019-02-17T05:13:45.564Z,65.96
2019-02-17T05:16:35.069Z,66.18
2019-02-17T05:19:25.040Z,66.47
2019-02-17T05:22:14.953Z,65.92
2019-02-17T05:25:04.274Z,66.18
2019-02-17T05:27:53.870Z,66.48
2019-02-17T05:30:52.062Z,66.14
2019-02-17T05:33:34.915Z,65.97
2019-02-17T05:36:24.666Z,66.46
2019-02-17T05:39:14.524Z,66.21
2019-02-17T05:45:27.978Z,66.55
2019-02-17T05:48:17.184Z,66.22
2019-02-17T05:51:06.649Z,66.09
2019-02-17T05:53:55.822Z,66.26
2019-02-17T05:56:45.501Z,66.16
2019-02-17T05:59:35.268Z,66.90
2019-02-17T06:02:24.717Z,67.45
2019-02-17T06:05:17.867Z,66.90
2019-02-17T06:08:07.254Z,66.77
2019-02-17T06:10:57.113Z,66.92
2019-02-17T06:13:46.292Z,66.72
2019-02-17T06:16:36.163Z,67.84
2019-02-17T06:19:25.588Z,67.82
2019-02-17T06:22:15.502Z,67.68
2019-02-17T06:25:05.325Z,67.67
2019-02-17T06:27:55.186Z,67.65
2019-02-17T06:30:44.904Z,67.63
2019-02-17T06:33:34.661Z,67.66
2019-02-17T06:36:23.862Z,67.39
2019-02-17T06:39:13.694Z,67.04
2019-02-17T06:42:03.274Z,66.96
2019-02-17T06:44:52.723Z,67.53
2019-02-17T06:47:42.652Z,68.41
2019-02-17T06:50:32.920Z,68.61
2019-02-17T06:53:22.896Z,67.91
2019-02-17T06:56:27.571Z,67.41
2019-02-17T06:59:17.223Z,66.49
2019-02-17T07:02:07.321Z,65.91
2019-02-17T07:05:21.582Z,65.37
2019-02-17T07:08:11.813Z,65.38
2019-02-17T07:11:01.029Z,65.53
2019-02-17T07:13:50.773Z,66.59
2019-02-17T07:16:40.140Z,67.15
2019-02-17T07:19:29.469Z,67.94
2019-02-17T07:22:18.904Z,67.52
2019-02-17T07:25:08.761Z,67.05
2019-02-17T07:27:58.017Z,66.71
2019-02-17T07:30:47.328Z,66.06
2019-02-17T07:33:37.296Z,65.90
2019-02-17T07:36:26.567Z,65.38
2019-02-17T07:39:19.069Z,64.93
2019-02-17T07:42:09.651Z,65.15
2019-02-17T07:44:59.271Z,64.80
2019-02-17T07:47:48.792Z,64.33
2019-02-17T07:50:38.453Z,64.10
2019-02-17T07:53:27.697Z,64.03
2019-02-17T07:56:17.658Z,64.27
2019-02-17T07:59:07.046Z,63.15
2019-02-17T08:01:56.234Z,62.99
2019-02-17T08:04:45.726Z,62.67
2019-02-17T08:07:35.612Z,61.75
2019-02-17T08:10:25.114Z,61.43
2019-02-17T08:13:14.682Z,61.13
2019-02-17T08:16:04.495Z,62.46
2019-02-17T08:18:54.110Z,62.73
2019-02-17T08:21:49.308Z,62.94
2019-02-17T08:24:39.136Z,63.00
2019-02-17T08:27:28.309Z,61.76
2019-02-17T08:30:18.120Z,61.54
2019-02-17T08:33:07.370Z,60.07
2019-02-17T08:35:56.838Z,58.85
2019-02-17T08:38:46.096Z,58.38
2019-02-17T08:41:35.533Z,57.72
2019-02-17T08:44:25.223Z,57.28
2019-02-17T08:47:14.537Z,55.27
2019-02-17T08:50:03.735Z,54.82
2019-02-17T08:52:53.678Z,56.16
2019-02-17T08:55:43.260Z,56.50
2019-02-17T08:58:33.292Z,57.29
2019-02-17T09:01:23.289Z,53.14
2019-02-17T09:04:13.276Z,54.22
2019-02-17T09:07:02.728Z,52.00
2019-02-17T09:09:51.947Z,49.52
2019-02-17T09:12:41.487Z,46.02
2019-02-17T09:15:31.131Z,45.89
2019-02-17T09:18:20.351Z,43.81
2019-02-17T09:21:10.624Z,44.01
2019-02-17T09:24:00.485Z,43.38
2019-02-17T09:26:49.815Z,41.91
2019-02-17T09:29:39.890Z,44.16
2019-02-17T09:32:29.468Z,42.75
2019-02-17T09:35:19.152Z,44.45
2019-02-17T09:38:08.781Z,41.57
2019-02-17T09:40:59.003Z,41.29
2019-02-17T09:43:48.685Z,40.87
2019-02-17T09:46:38.373Z,42.04
2019-02-17T09:49:28.085Z,44.72
2019-02-17T09:52:17.278Z,44.01
2019-02-17T09:55:06.749Z,43.91
2019-02-17T09:57:56.272Z,45.92
2019-02-17T10:00:46.567Z,43.92
2019-02-17T10:03:36.087Z,44.34
2019-02-17T10:06:25.257Z,43.97
2019-02-17T10:09:15.143Z,42.92
2019-02-17T10:12:04.410Z,44.41
2019-02-17T10:14:53.669Z,43.34
2019-02-17T10:17:42.863Z,41.61
2019-02-17T10:20:32.183Z,40.76
2019-02-17T10:23:21.648Z,39.99
2019-02-17T10:26:11.071Z,35.28
2019-02-17T10:29:00.562Z,34.07
2019-02-17T10:31:50.374Z,35.05
2019-02-17T10:34:39.557Z,32.16
2019-02-17T10:37:29.423Z,34.42
2019-02-17T10:40:18.817Z,33.45
2019-02-17T10:43:08.096Z,31.72
2019-02-17T10:45:57.726Z,34.24
2019-02-17T10:48:47.052Z,31.97
2019-02-17T10:51:36.497Z,28.93
2019-02-17T10:54:26.048Z,28.81
2019-02-17T10:57:18.205Z,28.90
2019-02-17T11:00:11.895Z,28.75
2019-02-17T11:03:17.457Z,26.75
2019-02-17T11:06:07.422Z,27.69
2019-02-17T11:08:57.023Z,27.19
2019-02-17T11:11:46.589Z,25.98
2019-02-17T11:14:35.876Z,25.29
2019-02-17T11:17:25.726Z,26.58
2019-02-17T11:20:15.331Z,26.17
2019-02-17T11:23:05.020Z,26.38
2019-02-17T11:25:54.411Z,25.07
2019-02-17T11:28:44.444Z,25.77
2019-02-17T11:31:33.719Z,26.10
2019-02-17T11:34:23.605Z,25.17
2019-02-17T11:37:16.857Z,24.99
2019-02-17T11:40:08.283Z,23.52
2019-02-17T11:42:57.706Z,24.97
2019-02-17T11:45:47.250Z,25.22
2019-02-17T11:48:36.710Z,25.33
2019-02-17T11:51:26.530Z,25.35
2019-02-17T11:54:15.793Z,24.89
2019-02-17T11:57:04.970Z,25.47
2019-02-17T11:59:54.179Z,24.62
2019-02-17T12:02:43.572Z,24.46
2019-02-17T12:05:33.043Z,24.59
2019-02-17T12:08:22.734Z,24.63
2019-02-17T12:11:14.847Z,26.49
2019-02-17T12:14:06.810Z,26.50
2019-02-17T12:16:56.145Z,26.52
2019-02-17T12:19:45.329Z,27.42
2019-02-17T12:22:40.099Z,28.89
2019-02-17T12:25:38.184Z,28.14
2019-02-17T12:29:04.802Z,27.30
2019-02-17T12:31:54.957Z,27.92
2019-02-17T12:34:44.302Z,28.50
2019-02-17T12:37:33.795Z,28.82
2019-02-17T12:40:23.697Z,30.30
2019-02-17T12:43:15.221Z,30.62
2019-02-17T12:46:04.948Z,31.56
2019-02-17T12:48:54.367Z,33.71
2019-02-17T12:51:43.552Z,33.05
2019-02-17T12:54:33.081Z,32.82
2019-02-17T12:57:22.524Z,34.04
2019-02-17T13:00:15.644Z,33.63
2019-02-17T13:03:05.564Z,32.87
2019-02-17T13:05:54.907Z,33.47
2019-02-17T13:08:44.496Z,33.77
2019-02-17T13:11:34.305Z,33.59
2019-02-17T13:14:23.497Z,34.22
2019-02-17T13:17:16.487Z,33.68
2019-02-17T13:20:08.161Z,33.93
2019-02-17T13:22:57.514Z,33.77
2019-02-17T13:25:47.102Z,32.95
2019-02-17T13:28:36.804Z,33.66
2019-02-17T13:31:26.105Z,33.53
2019-02-17T13:34:16.192Z,32.77
2019-02-17T13:37:05.658Z,33.66
2019-02-17T13:39:55.120Z,31.97
2019-02-17T13:42:44.367Z,32.49
2019-02-17T13:45:34.677Z,32.38
2019-02-17T13:48:23.919Z,33.47
2019-02-17T13:51:20.938Z,30.99
2019-02-17T13:54:10.621Z,31.82
2019-02-17T13:56:59.828Z,32.87
2019-02-17T13:59:49.493Z,32.40
2019-02-17T14:02:39.531Z,32.04
2019-02-17T14:05:28.981Z,32.46
2019-02-17T14:08:18.582Z,31.21
2019-02-17T14:11:07.802Z,31.69
2019-02-17T14:13:57.275Z,31.65
2019-02-17T14:16:47.000Z,31.45
2019-02-17T14:19:36.760Z,31.60
2019-02-17T14:22:26.408Z,31.40
2019-02-17T14:25:34.070Z,31.75
2019-02-17T14:28:23.688Z,31.74
2019-02-17T14:31:14.105Z,30.76
2019-02-17T14:34:05.045Z,32.04
2019-02-17T14:36:55.097Z,32.30
2019-02-17T14:39:44.595Z,32.44
2019-02-17T14:42:34.233Z,32.24
2019-02-17T14:45:23.600Z,31.76
2019-02-17T14:48:13.369Z,31.12
2019-02-17T14:51:02.620Z,30.20
2019-02-17T14:53:52.080Z,29.71
2019-02-17T14:56:41.477Z,29.36
2019-02-17T14:59:31.232Z,28.65
2019-02-17T15:02:20.462Z,28.61
2019-02-17T15:05:10.858Z,28.59
2019-02-17T15:08:00.414Z,26.95
2019-02-17T15:10:50.344Z,28.93
2019-02-17T15:13:39.614Z,27.28
2019-02-17T15:16:28.978Z,27.31
2019-02-17T15:19:18.581Z,28.63
2019-02-17T15:22:08.565Z,29.12
2019-02-17T15:24:57.963Z,29.22
2019-02-17T15:27:48.023Z,29.76
2019-02-17T15:30:37.595Z,30.85
2019-02-17T15:33:27.230Z,31.97
2019-02-17T15:36:16.482Z,32.12
2019-02-17T15:39:09.858Z,33.02
2019-02-17T15:41:59.532Z,34.39
2019-02-17T15:44:49.010Z,33.72
2019-02-17T15:47:39.025Z,34.80
2019-02-17T15:50:28.658Z,37.83
2019-02-17T15:53:18.688Z,40.79
2019-02-17T15:56:07.907Z,44.15
2019-02-17T15:58:57.100Z,44.02
2019-02-17T16:01:46.375Z,45.07
2019-02-17T16:04:36.308Z,45.74
2019-02-17T16:07:25.936Z,46.32
2019-02-17T16:10:15.977Z,45.87
2019-02-17T16:13:05.543Z,46.63
2019-02-17T16:15:55.428Z,47.46
2019-02-17T16:18:45.048Z,48.13
2019-02-17T16:21:34.583Z,47.96
2019-02-17T16:24:23.777Z,49.13
2019-02-17T16:27:13.679Z,49.16
2019-02-17T16:30:03.339Z,49.77
2019-02-17T16:32:53.019Z,50.35
2019-02-17T16:35:42.204Z,50.22
2019-02-17T16:38:31.395Z,52.55
2019-02-17T16:41:20.580Z,52.24
2019-02-17T16:44:10.466Z,52.58
2019-02-17T16:46:59.860Z,53.15
2019-02-17T16:49:49.807Z,52.64
2019-02-17T16:52:39.304Z,53.04
2019-02-17T16:55:29.180Z,53.15
2019-02-17T16:58:18.402Z,52.91
2019-02-17T17:01:07.854Z,52.66
2019-02-17T17:03:57.066Z,52.29
2019-02-17T17:06:46.972Z,53.03
2019-02-17T17:09:36.286Z,52.51
2019-02-17T17:12:25.954Z,52.83
2019-02-17T17:15:16.135Z,51.95
2019-02-17T17:18:05.784Z,51.60
2019-02-17T17:20:55.160Z,51.69
2019-02-17T17:23:44.564Z,51.96
2019-02-17T17:26:34.289Z,51.54
2019-02-17T17:29:24.269Z,52.18
2019-02-17T17:32:13.657Z,52.41
2019-02-17T17:35:03.265Z,52.62
2019-02-17T17:37:52.456Z,52.32
2019-02-17T17:40:41.698Z,52.41
2019-02-17T17:43:30.987Z,54.20
2019-02-17T17:46:20.744Z,52.99
2019-02-17T17:49:18.977Z,52.53
2019-02-17T17:52:28.442Z,52.31
2019-02-17T17:55:17.658Z,52.42
2019-02-17T17:58:07.115Z,52.52
2019-02-17T18:00:57.638Z,53.95
2019-02-17T18:03:47.108Z,53.71
2019-02-17T18:06:37.064Z,54.39
2019-02-17T18:09:26.767Z,53.52
2019-02-17T18:12:16.218Z,53.02
2019-02-17T18:15:06.652Z,53.19
2019-02-17T18:17:55.832Z,54.23
2019-02-17T18:20:45.512Z,53.96
2019-02-17T18:23:35.316Z,54.83
2019-02-17T18:26:24.792Z,55.16
2019-02-17T18:29:16.457Z,54.67
2019-02-17T18:32:05.690Z,53.50
2019-02-17T18:34:54.854Z,54.19
2019-02-17T18:37:44.271Z,53.51
2019-02-17T18:40:33.503Z,55.03
2019-02-17T18:43:23.659Z,54.60
2019-02-17T18:46:13.185Z,55.36
2019-02-17T18:49:05.365Z,55.36
2019-02-17T18:51:54.722Z,56.65
2019-02-17T18:54:44.276Z,56.00
2019-02-17T18:57:33.593Z,56.71
2019-02-17T19:00:23.281Z,55.72
2019-02-17T19:03:16.338Z,57.17
2019-02-17T19:06:10.901Z,57.12
2019-02-17T19:09:00.127Z,57.09
2019-02-17T19:11:49.305Z,56.55
2019-02-17T19:14:38.851Z,56.94
2019-02-17T19:17:28.547Z,56.82
2019-02-17T19:20:19.070Z,56.61
2019-02-17T19:23:08.370Z,57.24
2019-02-17T19:25:57.922Z,57.76
2019-02-17T19:28:50.371Z,57.95
2019-02-17T19:31:41.591Z,57.45
2019-02-17T19:34:38.811Z,57.05
2019-02-17T19:37:36.213Z,57.71
2019-02-17T19:40:34.017Z,56.11
2019-02-17T19:43:31.207Z,57.17
2019-02-17T19:46:34.849Z,57.60
2019-02-17T19:49:36.559Z,58.03
2019-02-17T19:52:26.019Z,57.29
2019-02-17T19:58:53.163Z,57.68
2019-02-17T20:01:42.535Z,57.91
2019-02-17T20:04:35.925Z,58.25
2019-02-17T20:07:25.807Z,58.13
2019-02-17T20:10:15.102Z,58.74
2019-02-17T20:13:04.954Z,58.64
2019-02-17T20:15:54.154Z,59.16
2019-02-17T20:18:43.628Z,58.72
2019-02-17T20:21:33.314Z,59.33
2019-02-17T20:24:22.539Z,59.73
2019-02-17T20:27:12.859Z,59.97
2019-02-17T20:30:02.257Z,59.71
2019-02-17T20:32:51.993Z,60.24
2019-02-17T20:35:41.285Z,60.29
2019-02-17T20:38:30.940Z,59.54
2019-02-17T20:41:20.313Z,59.86
2019-02-17T20:44:09.488Z,60.50
2019-02-17T20:46:58.700Z,60.81
2019-02-17T20:49:53.584Z,62.35
2019-02-17T20:52:43.029Z,62.06
2019-02-17T20:55:32.671Z,62.33
2019-02-17T20:58:21.946Z,61.13
2019-02-17T21:01:11.082Z,61.15
2019-02-17T21:04:00.720Z,60.82
2019-02-17T21:06:50.576Z,60.65
2019-02-17T21:10:11.622Z,61.44
2019-02-17T21:13:01.355Z,61.47
2019-02-17T21:15:50.757Z,61.25
2019-02-17T21:18:40.180Z,60.93
2019-02-17T21:21:30.137Z,60.50
2019-02-17T21:24:19.692Z,61.16
2019-02-17T21:27:09.444Z,60.29
2019-02-17T21:29:58.545Z,60.83
2019-02-17T21:32:47.777Z,60.56
2019-02-17T21:35:37.501Z,60.80
2019-02-17T21:38:26.745Z,60.64
2019-02-17T21:41:18.757Z,61.08
2019-02-17T21:44:08.095Z,60.58
2019-02-17T21:46:57.911Z,61.80
2019-02-17T21:49:47.309Z,60.05
2019-02-17T21:52:36.977Z,61.65
2019-02-17T21:55:26.201Z,61.80
2019-02-17T21:58:16.188Z,61.55
2019-02-17T22:01:05.316Z,62.45
2019-02-17T22:03:55.279Z,61.54
2019-02-17T22:06:44.606Z,61.33
2019-02-17T22:09:36.198Z,60.91
2019-02-17T22:12:25.621Z,60.64
2019-02-17T22:15:15.877Z,61.52
2019-02-17T22:18:05.293Z,61.15
2019-02-17T22:20:54.645Z,61.42
2019-02-17T22:23:43.850Z,61.11
2019-02-17T22:26:33.692Z,61.09
2019-02-17T22:29:23.131Z,61.63
2019-02-17T22:32:12.739Z,60.86
2019-02-17T22:35:01.881Z,60.70
2019-02-17T22:37:51.286Z,60.07
2019-02-17T22:40:40.501Z,59.21
2019-02-17T22:43:30.056Z,60.05
2019-02-17T22:46:19.701Z,59.87
2019-02-17T22:49:12.193Z,60.19
2019-02-17T22:52:02.188Z,60.60
2019-02-17T22:54:51.822Z,60.10
2019-02-17T22:57:41.202Z,60.41
2019-02-17T23:00:47.834Z,60.29
2019-02-17T23:03:37.323Z,59.90
2019-02-17T23:06:26.882Z,59.13
2019-02-17T23:09:16.419Z,60.12
2019-02-17T23:12:06.755Z,59.68
2019-02-17T23:14:56.240Z,60.28
2019-02-17T23:17:46.198Z,60.41
2019-02-17T23:20:35.471Z,61.03
2019-02-17T23:23:24.670Z,59.67
2019-02-17T23:26:13.839Z,60.61
2019-02-17T23:29:06.220Z,60.45
2019-02-17T23:31:55.516Z,60.02
2019-02-17T23:34:45.652Z,59.96
2019-02-17T23:37:35.237Z,59.72
2019-02-17T23:40:25.266Z,59.54
2019-02-17T23:43:15.762Z,60.52
2019-02-17T23:46:05.428Z,59.96
2019-02-17T23:48:54.592Z,61.05
2019-02-17T23:51:44.242Z,60.62
2019-02-17T23:54:33.969Z,60.89
2019-02-17T23:57:23.421Z,60.50
